PWSweather.com
Personal Weather Stations
Station Observations
IONTARIO88
Lincoln, ON L0R

Lincoln, ON L0R

Lat: 43.1763563, Lon: -79.4719525

Elevation: 297

Station Type: Davis Vantage Pro 2 Plus

http://www.beamsvillewx.ca

High Low Average
Temperature 19.4°F-7.0°C 12.6°F-10.8°C 15.7°F-9.1°C
Dew Point 8.9°F-12.8°C 2.7°F-16.3°C 6.1°F-14.4°C
Winds 11.0 mph 17.7 kmh 2.0 mph 3.2 kmh 7.0 mph W11.3 kmh W
Wind Gusts 23.0 mph37.0 kmh 7.0 mph11.3 kmh 14.0 mph22.5 kmh
Humidity 78% 50% 65%
Pressure 30.36 in1028.1 mb 30.08 in1018.6 mb -
Precipitation 0.00 in0.0 mm - -
Hour Temp Dew Point Humidity Winds Wind Gusts Pressure Precip Precip Rate Daily Precip Total
12:00 AM 20.3°F-6.5°C 9.7°F-12.4°C 63% 10.0 mph WNW16.1 kmh WNW 18.0 mph29.0 kmh 30.07 in1018.3 mb 0.00 in0.0 mm 0.00 in0.0 mm 0.00 in0.0 mm
12:15 AM 19.9°F-6.7°C 9.7°F-12.4°C 64% 9.0 mph WNW14.5 kmh WNW 17.0 mph27.4 kmh 30.08 in1018.6 mb 0.00 in0.0 mm 0.00 in0.0 mm 0.00 in0.0 mm
12:30 AM 19.2°F-7.1°C 9.4°F-12.6°C 65% 8.0 mph WNW12.9 kmh WNW 15.0 mph24.1 kmh 30.08 in1018.6 mb 0.00 in0.0 mm 0.00 in0.0 mm 0.00 in0.0 mm
12:45 AM 18.5°F-7.5°C 8.7°F-12.9°C 65% 7.0 mph WNW11.3 kmh WNW 13.0 mph20.9 kmh 30.08 in1018.6 mb 0.00 in0.0 mm 0.00 in0.0 mm 0.00 in0.0 mm
01:00 AM 18.1°F-7.7°C 8.3°F-13.2°C 65% 7.0 mph W11.3 kmh W 12.0 mph19.3 kmh 30.08 in1018.6 mb 0.00 in0.0 mm 0.00 in0.0 mm 0.00 in0.0 mm
01:15 AM 17.6°F-8.0°C 8.2°F-13.2°C 66% 7.0 mph W11.3 kmh W 13.0 mph20.9 kmh 30.08 in1018.6 mb 0.00 in0.0 mm 0.00 in0.0 mm 0.00 in0.0 mm
01:30 AM 17.2°F-8.2°C 8.2°F-13.2°C 67% 4.0 mph W6.4 kmh W 13.0 mph20.9 kmh 30.08 in1018.6 mb 0.00 in0.0 mm 0.00 in0.0 mm 0.00 in0.0 mm
01:45 AM 16.9°F-8.4°C 8.8°F-12.9°C 70% 6.0 mph WSW9.7 kmh WSW 11.0 mph17.7 kmh 30.09 in1019.0 mb 0.00 in0.0 mm 0.00 in0.0 mm 0.00 in0.0 mm
02:00 AM 16.5°F-8.6°C 8.4°F-13.1°C 70% 6.0 mph W9.7 kmh W 13.0 mph20.9 kmh 30.09 in1019.0 mb 0.00 in0.0 mm 0.00 in0.0 mm 0.00 in0.0 mm
02:15 AM 16.2°F-8.8°C 8.4°F-13.1°C 71% 5.0 mph W8.0 kmh W 11.0 mph17.7 kmh 30.09 in1019.0 mb 0.00 in0.0 mm 0.00 in0.0 mm 0.00 in0.0 mm
02:30 AM 15.8°F-9.0°C 8.1°F-13.3°C 71% 6.0 mph W9.7 kmh W 12.0 mph19.3 kmh 30.09 in1019.0 mb 0.00 in0.0 mm 0.00 in0.0 mm 0.00 in0.0 mm
02:45 AM 15.4°F-9.2°C 8.0°F-13.3°C 72% 6.0 mph W9.7 kmh W 13.0 mph20.9 kmh 30.09 in1019.0 mb 0.00 in0.0 mm 0.00 in0.0 mm 0.00 in0.0 mm
03:00 AM 15.3°F-9.3°C 7.8°F-13.4°C 72% 6.0 mph W9.7 kmh W 14.0 mph22.5 kmh 30.10 in1019.3 mb 0.00 in0.0 mm 0.00 in0.0 mm 0.00 in0.0 mm
03:15 AM 15.3°F-9.3°C 8.2°F-13.2°C 73% 7.0 mph W11.3 kmh W 13.0 mph20.9 kmh 30.10 in1019.3 mb 0.00 in0.0 mm 0.00 in0.0 mm 0.00 in0.0 mm
03:30 AM 14.9°F-9.5°C 7.8°F-13.4°C 73% 6.0 mph W9.7 kmh W 12.0 mph19.3 kmh 30.11 in1019.6 mb 0.00 in0.0 mm 0.00 in0.0 mm 0.00 in0.0 mm
03:45 AM 14.9°F-9.5°C 8.1°F-13.3°C 74% 6.0 mph W9.7 kmh W 16.0 mph25.7 kmh 30.11 in1019.6 mb 0.00 in0.0 mm 0.00 in0.0 mm 0.00 in0.0 mm
04:00 AM 15.1°F-9.4°C 8.6°F-13.0°C 75% 7.0 mph W11.3 kmh W 14.0 mph22.5 kmh 30.11 in1019.6 mb 0.00 in0.0 mm 0.00 in0.0 mm 0.00 in0.0 mm
04:15 AM 15.1°F-9.4°C 8.6°F-13.0°C 75% 8.0 mph W12.9 kmh W 18.0 mph29.0 kmh 30.11 in1019.6 mb 0.00 in0.0 mm 0.00 in0.0 mm 0.00 in0.0 mm
04:30 AM 15.1°F-9.4°C 8.9°F-12.8°C 76% 9.0 mph W14.5 kmh W 17.0 mph27.4 kmh 30.11 in1019.6 mb 0.00 in0.0 mm 0.00 in0.0 mm 0.00 in0.0 mm
04:45 AM 15.3°F-9.3°C 8.8°F-12.9°C 75% 8.0 mph W12.9 kmh W 14.0 mph22.5 kmh 30.11 in1019.6 mb 0.00 in0.0 mm 0.00 in0.0 mm 0.00 in0.0 mm
05:00 AM 14.7°F-9.6°C 8.5°F-13.1°C 76% 8.0 mph W12.9 kmh W 15.0 mph24.1 kmh 30.12 in1020.0 mb 0.00 in0.0 mm 0.00 in0.0 mm 0.00 in0.0 mm
05:15 AM 14.5°F-9.7°C 8.4°F-13.1°C 76% 9.0 mph W14.5 kmh W 18.0 mph29.0 kmh 30.12 in1020.0 mb 0.00 in0.0 mm 0.00 in0.0 mm 0.00 in0.0 mm
05:30 AM 14.4°F-9.8°C 8.5°F-13.1°C 77% 8.0 mph WSW12.9 kmh WSW 16.0 mph25.7 kmh 30.13 in1020.3 mb 0.00 in0.0 mm 0.00 in0.0 mm 0.00 in0.0 mm
05:45 AM 14.0°F-10.0°C 8.1°F-13.3°C 77% 8.0 mph W12.9 kmh W 15.0 mph24.1 kmh 30.13 in1020.3 mb 0.00 in0.0 mm 0.00 in0.0 mm 0.00 in0.0 mm
06:00 AM 14.2°F-9.9°C 8.3°F-13.2°C 77% 7.0 mph W11.3 kmh W 15.0 mph24.1 kmh 30.14 in1020.7 mb 0.00 in0.0 mm 0.00 in0.0 mm 0.00 in0.0 mm
06:15 AM 14.4°F-9.8°C 8.8°F-12.9°C 78% 7.0 mph W11.3 kmh W 12.0 mph19.3 kmh 30.14 in1020.7 mb 0.00 in0.0 mm 0.00 in0.0 mm 0.00 in0.0 mm
06:30 AM 14.4°F-9.8°C 8.8°F-12.9°C 78% 7.0 mph W11.3 kmh W 14.0 mph22.5 kmh 30.15 in1021.0 mb 0.00 in0.0 mm 0.00 in0.0 mm 0.00 in0.0 mm
06:45 AM 14.5°F-9.7°C 8.9°F-12.8°C 78% 7.0 mph W11.3 kmh W 14.0 mph22.5 kmh 30.16 in1021.3 mb 0.00 in0.0 mm 0.00 in0.0 mm 0.00 in0.0 mm
07:00 AM 14.7°F-9.6°C 8.5°F-13.1°C 76% 8.0 mph NW12.9 kmh NW 18.0 mph29.0 kmh 30.17 in1021.7 mb 0.00 in0.0 mm 0.00 in0.0 mm 0.00 in0.0 mm
07:15 AM 15.3°F-9.3°C 6.6°F-14.1°C 68% 10.0 mph NW16.1 kmh NW 17.0 mph27.4 kmh 30.18 in1022.0 mb 0.00 in0.0 mm 0.00 in0.0 mm 0.00 in0.0 mm
07:30 AM 14.7°F-9.6°C 6.1°F-14.4°C 68% 10.0 mph NW16.1 kmh NW 17.0 mph27.4 kmh 30.19 in1022.4 mb 0.00 in0.0 mm 0.00 in0.0 mm 0.00 in0.0 mm
07:45 AM 14.5°F-9.7°C 4.9°F-15.1°C 65% 10.0 mph NW16.1 kmh NW 17.0 mph27.4 kmh 30.19 in1022.4 mb 0.00 in0.0 mm 0.00 in0.0 mm 0.00 in0.0 mm
08:00 AM 14.2°F-9.9°C 4.6°F-15.2°C 65% 10.0 mph NW16.1 kmh NW 19.0 mph30.6 kmh 30.20 in1022.7 mb 0.00 in0.0 mm 0.00 in0.0 mm 0.00 in0.0 mm
08:15 AM 13.6°F-10.2°C 3.7°F-15.7°C 64% 10.0 mph NW16.1 kmh NW 23.0 mph37.0 kmh 30.21 in1023.0 mb 0.00 in0.0 mm 0.00 in0.0 mm 0.00 in0.0 mm
08:30 AM 13.3°F-10.4°C 3.7°F-15.7°C 65% 11.0 mph NW17.7 kmh NW 20.0 mph32.2 kmh 30.22 in1023.4 mb 0.00 in0.0 mm 0.00 in0.0 mm 0.00 in0.0 mm
08:45 AM 13.1°F-10.5°C 4.5°F-15.3°C 68% 10.0 mph NNW16.1 kmh NNW 16.0 mph25.7 kmh 30.23 in1023.7 mb 0.00 in0.0 mm 0.00 in0.0 mm 0.00 in0.0 mm
09:00 AM 13.3°F-10.4°C 5.0°F-15.0°C 69% 10.0 mph NNW16.1 kmh NNW 21.0 mph33.8 kmh 30.25 in1024.4 mb 0.00 in0.0 mm 0.00 in0.0 mm 0.00 in0.0 mm
09:15 AM 13.3°F-10.4°C 4.4°F-15.3°C 67% 10.0 mph NW16.1 kmh NW 20.0 mph32.2 kmh 30.25 in1024.4 mb 0.00 in0.0 mm 0.00 in0.0 mm 0.00 in0.0 mm
09:30 AM 12.9°F-10.6°C 4.0°F-15.6°C 67% 9.0 mph NW14.5 kmh NW 16.0 mph25.7 kmh 30.27 in1025.1 mb 0.00 in0.0 mm 0.00 in0.0 mm 0.00 in0.0 mm
09:45 AM 12.7°F-10.7°C 3.8°F-15.7°C 67% 8.0 mph NW12.9 kmh NW 16.0 mph25.7 kmh 30.28 in1025.4 mb 0.00 in0.0 mm 0.00 in0.0 mm 0.00 in0.0 mm
10:00 AM 12.6°F-10.8°C 2.7°F-16.3°C 64% 11.0 mph NW17.7 kmh NW 22.0 mph35.4 kmh 30.29 in1025.7 mb 0.00 in0.0 mm 0.00 in0.0 mm 0.00 in0.0 mm
10:15 AM 12.7°F-10.7°C 2.8°F-16.2°C 64% 8.0 mph NW12.9 kmh NW 15.0 mph24.1 kmh 30.29 in1025.7 mb 0.00 in0.0 mm 0.00 in0.0 mm 0.00 in0.0 mm
10:30 AM 13.6°F-10.2°C 3.0°F-16.1°C 62% 10.0 mph NW16.1 kmh NW 18.0 mph29.0 kmh 30.30 in1026.1 mb 0.00 in0.0 mm 0.00 in0.0 mm 0.00 in0.0 mm
10:45 AM 14.4°F-9.8°C 3.7°F-15.7°C 62% 8.0 mph NW12.9 kmh NW 15.0 mph24.1 kmh 30.30 in1026.1 mb 0.00 in0.0 mm 0.00 in0.0 mm 0.00 in0.0 mm
11:00 AM 14.2°F-9.9°C 3.9°F-15.6°C 63% 8.0 mph NW12.9 kmh NW 15.0 mph24.1 kmh 30.31 in1026.4 mb 0.00 in0.0 mm 0.00 in0.0 mm 0.00 in0.0 mm
11:15 AM 14.5°F-9.7°C 3.2°F-16.0°C 60% 10.0 mph NW16.1 kmh NW 16.0 mph25.7 kmh 30.32 in1026.8 mb 0.00 in0.0 mm 0.00 in0.0 mm 0.00 in0.0 mm
11:30 AM 15.3°F-9.3°C 3.8°F-15.7°C 60% 10.0 mph NW16.1 kmh NW 19.0 mph30.6 kmh 30.32 in1026.8 mb 0.00 in0.0 mm 0.00 in0.0 mm 0.00 in0.0 mm
11:45 AM 15.6°F-9.1°C 4.9°F-15.1°C 62% 8.0 mph NW12.9 kmh NW 16.0 mph25.7 kmh 30.32 in1026.8 mb 0.00 in0.0 mm 0.00 in0.0 mm 0.00 in0.0 mm
12:00 PM 15.6°F-9.1°C 3.8°F-15.7°C 59% 9.0 mph NW14.5 kmh NW 19.0 mph30.6 kmh 30.32 in1026.8 mb 0.00 in0.0 mm 0.00 in0.0 mm 0.00 in0.0 mm
12:15 PM 16.2°F-8.8°C 4.3°F-15.4°C 59% 8.0 mph NW12.9 kmh NW 14.0 mph22.5 kmh 30.33 in1027.1 mb 0.00 in0.0 mm 0.00 in0.0 mm 0.00 in0.0 mm
12:30 PM 16.0°F-8.9°C 4.5°F-15.3°C 60% 7.0 mph NW11.3 kmh NW 12.0 mph19.3 kmh 30.33 in1027.1 mb 0.00 in0.0 mm 0.00 in0.0 mm 0.00 in0.0 mm
12:45 PM 16.9°F-8.4°C 5.0°F-15.0°C 59% 7.0 mph NW11.3 kmh NW 13.0 mph20.9 kmh 30.32 in1026.8 mb 0.00 in0.0 mm 0.00 in0.0 mm 0.00 in0.0 mm
01:00 PM 17.1°F-8.3°C 5.2°F-14.9°C 59% 7.0 mph NW11.3 kmh NW 14.0 mph22.5 kmh 30.32 in1026.8 mb 0.00 in0.0 mm 0.00 in0.0 mm 0.00 in0.0 mm
01:15 PM 18.0°F-7.8°C 5.3°F-14.8°C 57% 7.0 mph NW11.3 kmh NW 18.0 mph29.0 kmh 30.32 in1026.8 mb 0.00 in0.0 mm 0.00 in0.0 mm 0.00 in0.0 mm
01:30 PM 18.3°F-7.6°C 5.2°F-14.9°C 56% 9.0 mph NW14.5 kmh NW 19.0 mph30.6 kmh 30.33 in1027.1 mb 0.00 in0.0 mm 0.00 in0.0 mm 0.00 in0.0 mm
01:45 PM 17.8°F-7.9°C 3.9°F-15.6°C 54% 10.0 mph WNW16.1 kmh WNW 19.0 mph30.6 kmh 30.33 in1027.1 mb 0.00 in0.0 mm 0.00 in0.0 mm 0.00 in0.0 mm
02:00 PM 16.9°F-8.4°C 4.3°F-15.4°C 57% 10.0 mph WNW16.1 kmh WNW 17.0 mph27.4 kmh 30.33 in1027.1 mb 0.00 in0.0 mm 0.00 in0.0 mm 0.00 in0.0 mm
02:15 PM 16.7°F-8.5°C 5.6°F-14.7°C 61% 8.0 mph NW12.9 kmh NW 14.0 mph22.5 kmh 30.33 in1027.1 mb 0.00 in0.0 mm 0.00 in0.0 mm 0.00 in0.0 mm
02:30 PM 16.9°F-8.4°C 6.1°F-14.4°C 62% 7.0 mph NW11.3 kmh NW 12.0 mph19.3 kmh 30.33 in1027.1 mb 0.00 in0.0 mm 0.00 in0.0 mm 0.00 in0.0 mm
02:45 PM 17.4°F-8.1°C 6.6°F-14.1°C 62% 7.0 mph NW11.3 kmh NW 16.0 mph25.7 kmh 30.32 in1026.8 mb 0.00 in0.0 mm 0.00 in0.0 mm 0.00 in0.0 mm
03:00 PM 17.4°F-8.1°C 7.0°F-13.9°C 63% 7.0 mph NW11.3 kmh NW 15.0 mph24.1 kmh 30.32 in1026.8 mb 0.00 in0.0 mm 0.00 in0.0 mm 0.00 in0.0 mm
03:15 PM 17.8°F-7.9°C 6.6°F-14.1°C 61% 7.0 mph NW11.3 kmh NW 14.0 mph22.5 kmh 30.32 in1026.8 mb 0.00 in0.0 mm 0.00 in0.0 mm 0.00 in0.0 mm
03:30 PM 18.1°F-7.7°C 5.1°F-14.9°C 56% 7.0 mph WNW11.3 kmh WNW 14.0 mph22.5 kmh 30.32 in1026.8 mb 0.00 in0.0 mm 0.00 in0.0 mm 0.00 in0.0 mm
03:45 PM 19.4°F-7.0°C 5.0°F-15.0°C 53% 9.0 mph WNW14.5 kmh WNW 17.0 mph27.4 kmh 30.32 in1026.8 mb 0.00 in0.0 mm 0.00 in0.0 mm 0.00 in0.0 mm
04:00 PM 18.5°F-7.5°C 4.2°F-15.4°C 53% 10.0 mph NW16.1 kmh NW 17.0 mph27.4 kmh 30.32 in1026.8 mb 0.00 in0.0 mm 0.00 in0.0 mm 0.00 in0.0 mm
04:15 PM 18.0°F-7.8°C 4.1°F-15.5°C 54% 7.0 mph W11.3 kmh W 14.0 mph22.5 kmh 30.32 in1026.8 mb 0.00 in0.0 mm 0.00 in0.0 mm 0.00 in0.0 mm
04:30 PM 17.4°F-8.1°C 4.4°F-15.3°C 56% 7.0 mph W11.3 kmh W 16.0 mph25.7 kmh 30.32 in1026.8 mb 0.00 in0.0 mm 0.00 in0.0 mm 0.00 in0.0 mm
04:45 PM 18.3°F-7.6°C 3.2°F-16.0°C 51% 8.0 mph W12.9 kmh W 14.0 mph22.5 kmh 30.32 in1026.8 mb 0.00 in0.0 mm 0.00 in0.0 mm 0.00 in0.0 mm
05:00 PM 18.9°F-7.3°C 3.3°F-15.9°C 50% 8.0 mph W12.9 kmh W 14.0 mph22.5 kmh 30.32 in1026.8 mb 0.00 in0.0 mm 0.00 in0.0 mm 0.00 in0.0 mm
05:15 PM 18.9°F-7.3°C 3.7°F-15.7°C 51% 8.0 mph WNW12.9 kmh WNW 16.0 mph25.7 kmh 30.33 in1027.1 mb 0.00 in0.0 mm 0.00 in0.0 mm 0.00 in0.0 mm
05:30 PM 18.3°F-7.6°C 3.2°F-16.0°C 51% 8.0 mph W12.9 kmh W 11.0 mph17.7 kmh 30.33 in1027.1 mb 0.00 in0.0 mm 0.00 in0.0 mm 0.00 in0.0 mm
05:45 PM 18.1°F-7.7°C 3.4°F-15.9°C 52% 7.0 mph WNW11.3 kmh WNW 14.0 mph22.5 kmh 30.33 in1027.1 mb 0.00 in0.0 mm 0.00 in0.0 mm 0.00 in0.0 mm
06:00 PM 16.9°F-8.4°C 2.7°F-16.3°C 53% 6.0 mph W9.7 kmh W 12.0 mph19.3 kmh 30.34 in1027.4 mb 0.00 in0.0 mm 0.00 in0.0 mm 0.00 in0.0 mm
06:15 PM 16.2°F-8.8°C 3.2°F-16.0°C 56% 5.0 mph W8.0 kmh W 11.0 mph17.7 kmh 30.34 in1027.4 mb 0.00 in0.0 mm 0.00 in0.0 mm 0.00 in0.0 mm
06:30 PM 15.6°F-9.1°C 3.1°F-16.1°C 57% 4.0 mph WSW6.4 kmh WSW 12.0 mph19.3 kmh 30.34 in1027.4 mb 0.00 in0.0 mm 0.00 in0.0 mm 0.00 in0.0 mm
06:45 PM 15.6°F-9.1°C 3.4°F-15.9°C 58% 4.0 mph WSW6.4 kmh WSW 10.0 mph16.1 kmh 30.35 in1027.8 mb 0.00 in0.0 mm 0.00 in0.0 mm 0.00 in0.0 mm
07:00 PM 15.6°F-9.1°C 4.9°F-15.1°C 62% 5.0 mph WSW8.0 kmh WSW 11.0 mph17.7 kmh 30.36 in1028.1 mb 0.00 in0.0 mm 0.00 in0.0 mm 0.00 in0.0 mm
07:15 PM 15.6°F-9.1°C 5.9°F-14.5°C 65% 5.0 mph W8.0 kmh W 12.0 mph19.3 kmh 30.36 in1028.1 mb 0.00 in0.0 mm 0.00 in0.0 mm 0.00 in0.0 mm
07:30 PM 15.6°F-9.1°C 6.9°F-13.9°C 68% 4.0 mph WSW6.4 kmh WSW 8.0 mph12.9 kmh 30.36 in1028.1 mb 0.00 in0.0 mm 0.00 in0.0 mm 0.00 in0.0 mm
07:45 PM 15.3°F-9.3°C 6.9°F-13.9°C 69% 3.0 mph WSW4.8 kmh WSW 8.0 mph12.9 kmh 30.35 in1027.8 mb 0.00 in0.0 mm 0.00 in0.0 mm 0.00 in0.0 mm
08:00 PM 15.1°F-9.4°C 7.4°F-13.7°C 71% 3.0 mph SW4.8 kmh SW 9.0 mph14.5 kmh 30.35 in1027.8 mb 0.00 in0.0 mm 0.00 in0.0 mm 0.00 in0.0 mm
08:15 PM 14.9°F-9.5°C 7.5°F-13.6°C 72% 3.0 mph SW4.8 kmh SW 8.0 mph12.9 kmh 30.36 in1028.1 mb 0.00 in0.0 mm 0.00 in0.0 mm 0.00 in0.0 mm
08:30 PM 14.7°F-9.6°C 7.3°F-13.7°C 72% 2.0 mph WSW3.2 kmh WSW 8.0 mph12.9 kmh 30.35 in1027.8 mb 0.00 in0.0 mm 0.00 in0.0 mm 0.00 in0.0 mm
08:45 PM 14.5°F-9.7°C 7.5°F-13.6°C 73% 2.0 mph SW3.2 kmh SW 7.0 mph11.3 kmh 30.35 in1027.8 mb 0.00 in0.0 mm 0.00 in0.0 mm 0.00 in0.0 mm
09:00 PM 14.4°F-9.8°C 7.3°F-13.7°C 73% 3.0 mph SW4.8 kmh SW 8.0 mph12.9 kmh 30.34 in1027.4 mb 0.00 in0.0 mm 0.00 in0.0 mm 0.00 in0.0 mm
09:15 PM 14.5°F-9.7°C 7.2°F-13.8°C 72% 3.0 mph SW4.8 kmh SW 9.0 mph14.5 kmh 30.34 in1027.4 mb 0.00 in0.0 mm 0.00 in0.0 mm 0.00 in0.0 mm
09:30 PM 14.7°F-9.6°C 7.0°F-13.9°C 71% 3.0 mph SW4.8 kmh SW 10.0 mph16.1 kmh 30.34 in1027.4 mb 0.00 in0.0 mm 0.00 in0.0 mm 0.00 in0.0 mm
09:45 PM 15.1°F-9.4°C 6.4°F-14.2°C 68% 5.0 mph SW8.0 kmh SW 12.0 mph19.3 kmh 30.34 in1027.4 mb 0.00 in0.0 mm 0.00 in0.0 mm 0.00 in0.0 mm
10:00 PM 15.4°F-9.2°C 6.4°F-14.2°C 67% 4.0 mph SW6.4 kmh SW 11.0 mph17.7 kmh 30.34 in1027.4 mb 0.00 in0.0 mm 0.00 in0.0 mm 0.00 in0.0 mm
10:15 PM 15.6°F-9.1°C 6.3°F-14.3°C 66% 5.0 mph SW8.0 kmh SW 10.0 mph16.1 kmh 30.33 in1027.1 mb 0.00 in0.0 mm 0.00 in0.0 mm 0.00 in0.0 mm
10:30 PM 15.8°F-9.0°C 6.8°F-14.0°C 67% 3.0 mph SW4.8 kmh SW 10.0 mph16.1 kmh 30.33 in1027.1 mb 0.00 in0.0 mm 0.00 in0.0 mm 0.00 in0.0 mm
10:45 PM 16.2°F-8.8°C 6.8°F-14.0°C 66% 4.0 mph WSW6.4 kmh WSW 10.0 mph16.1 kmh 30.33 in1027.1 mb 0.00 in0.0 mm 0.00 in0.0 mm 0.00 in0.0 mm
11:00 PM 16.7°F-8.5°C 7.0°F-13.9°C 65% 5.0 mph WSW8.0 kmh WSW 13.0 mph20.9 kmh 30.32 in1026.8 mb 0.00 in0.0 mm 0.00 in0.0 mm 0.00 in0.0 mm
11:15 PM 16.9°F-8.4°C 7.1°F-13.8°C 65% 5.0 mph WSW8.0 kmh WSW 11.0 mph17.7 kmh 30.32 in1026.8 mb 0.00 in0.0 mm 0.00 in0.0 mm 0.00 in0.0 mm
11:30 PM 16.9°F-8.4°C 7.1°F-13.8°C 65% 4.0 mph WSW6.4 kmh WSW 10.0 mph16.1 kmh 30.32 in1026.8 mb 0.00 in0.0 mm 0.00 in0.0 mm 0.00 in0.0 mm
11:45 PM 16.7°F-8.5°C 7.6°F-13.6°C 67% 3.0 mph WSW4.8 kmh WSW 8.0 mph12.9 kmh 30.32 in1026.8 mb 0.00 in0.0 mm 0.00 in0.0 mm 0.00 in0.0 mm